Time;durP1;ratioP1;P1;durP2;ratioP2;P2;SDS_P1;SDS_P2;PMS_P1;PMS_P2;Temp;Humidity;BMP_temperature;BMP_pressure;BME280_temperature;BME280_humidity;BME280_pressure;Samples;Min_cycle;Max_cycle;Signal;HPM_P1;HPM_P2
2023/12/14 00:00:18;;;;;;;1.60;1.17;;;8.40;98.20;;;;;;5084978;28;20485;-85
2023/12/14 00:02:45;;;;;;;1.60;1.10;;;8.40;98.20;;;;;;5065729;28;20473;-82
2023/12/14 00:05:12;;;;;;;1.60;1.30;;;8.40;98.20;;;;;;5084400;28;20521;-83
2023/12/14 00:07:42;;;;;;;1.60;1.10;;;8.40;98.20;;;;;;5067831;28;20863;-82
2023/12/14 00:10:12;;;;;;;1.60;1.20;;;8.40;98.20;;;;;;5081421;28;20911;-82
2023/12/14 00:12:41;;;;;;;1.60;1.20;;;8.40;98.20;;;;;;5057596;28;20474;-82
2023/12/14 00:15:25;;;;;;;1.60;1.20;;;8.40;98.20;;;;;;5089397;28;20469;-83
2023/12/14 00:17:54;;;;;;;1.60;1.13;;;8.40;98.20;;;;;;5046352;28;20821;-85
2023/12/14 00:20:25;;;;;;;1.60;1.20;;;8.50;98.20;;;;;;5070369;28;20941;-84
2023/12/14 00:22:52;;;;;;;1.60;1.20;;;8.50;98.20;;;;;;5060056;28;20481;-82
2023/12/14 00:25:27;;;;;;;1.60;1.10;;;8.50;98.20;;;;;;5068873;28;20530;-82
2023/12/14 00:27:54;;;;;;;1.67;1.30;;;8.50;98.20;;;;;;5052620;28;20500;-81
2023/12/14 00:30:21;;;;;;;1.60;1.20;;;8.50;98.20;;;;;;5065827;28;20478;-81
2023/12/14 00:32:48;;;;;;;1.60;1.20;;;8.50;98.20;;;;;;5044180;28;20478;-81
2023/12/14 00:35:15;;;;;;;1.60;1.10;;;8.50;98.20;;;;;;5084035;28;20460;-82
2023/12/14 00:37:42;;;;;;;1.60;1.20;;;8.50;98.20;;;;;;5049733;28;20478;-80
2023/12/14 00:40:10;;;;;;;2.50;2.20;;;8.50;98.20;;;;;;5086364;28;20895;-81
2023/12/14 00:42:38;;;;;;;1.60;1.10;;;8.50;98.20;;;;;;5060754;28;20600;-81
2023/12/14 00:45:06;;;;;;;1.60;1.20;;;8.50;98.20;;;;;;5082739;28;20555;-81
2023/12/14 00:47:33;;;;;;;1.60;1.20;;;8.50;98.20;;;;;;5055755;28;21001;-81
2023/12/14 00:50:00;;;;;;;1.60;1.10;;;8.50;98.20;;;;;;5070642;28;20468;-80
2023/12/14 00:52:30;;;;;;;1.60;1.10;;;8.50;98.20;;;;;;5056710;28;20692;-81
2023/12/14 00:54:58;;;;;;;1.60;1.10;;;8.50;98.20;;;;;;5084373;28;20947;-80
2023/12/14 00:57:25;;;;;;;1.60;1.13;;;8.50;98.20;;;;;;5052208;28;20553;-80
2023/12/14 00:59:58;;;;;;;1.60;1.20;;;8.50;98.20;;;;;;5083055;28;20930;-82
2023/12/14 01:02:27;;;;;;;1.60;1.20;;;8.50;98.20;;;;;;5054581;28;20507;-81
2023/12/14 01:04:54;;;;;;;1.60;1.23;;;8.50;98.20;;;;;;5073404;28;20453;-81
2023/12/14 01:07:26;;;;;;;1.60;1.10;;;8.50;98.20;;;;;;5062004;28;20482;-81
2023/12/14 01:09:58;;;;;;;1.70;1.40;;;8.60;98.20;;;;;;5073186;28;20469;-81
2023/12/14 01:12:28;;;;;;;1.60;1.10;;;8.60;98.20;;;;;;5057359;28;20646;-81
2023/12/14 01:14:59;;;;;;;1.63;1.20;;;8.50;98.20;;;;;;5085431;28;20470;-81
2023/12/14 01:17:27;;;;;;;1.60;1.20;;;8.60;98.20;;;;;;5052775;28;20478;-82
2023/12/14 01:19:53;;;;;;;1.60;1.20;;;8.60;98.20;;;;;;5079913;28;20477;-81
2023/12/14 01:22:22;;;;;;;1.77;1.40;;;8.60;98.20;;;;;;5052921;28;20466;-81
2023/12/14 01:24:49;;;;;;;1.60;1.10;;;8.60;98.20;;;;;;5080643;28;20836;-81
2023/12/14 01:27:16;;;;;;;1.60;1.20;;;8.60;98.20;;;;;;5058523;28;20486;-81
2023/12/14 01:29:45;;;;;;;1.60;1.20;;;8.60;98.20;;;;;;5075473;28;20900;-81
2023/12/14 01:32:13;;;;;;;1.60;1.17;;;8.60;98.20;;;;;;5057745;28;20548;-82
2023/12/14 01:34:41;;;;;;;1.60;1.20;;;8.60;98.20;;;;;;5075710;28;20518;-82
2023/12/14 01:37:12;;;;;;;1.60;1.10;;;8.60;98.20;;;;;;5058096;28;20539;-82
2023/12/14 01:39:39;;;;;;;1.60;1.20;;;8.60;98.20;;;;;;5075530;28;20853;-81
2023/12/14 01:42:08;;;;;;;1.60;1.20;;;8.60;98.20;;;;;;5059573;28;20508;-80
2023/12/14 01:44:35;;;;;;;1.60;1.20;;;8.60;98.20;;;;;;5078276;28;20510;-81
2023/12/14 01:47:02;;;;;;;2.90;2.70;;;8.60;98.20;;;;;;5062185;28;20481;-80
2023/12/14 01:49:31;;;;;;;1.60;1.10;;;8.60;98.20;;;;;;5076087;28;20564;-81
2023/12/14 01:51:58;;;;;;;1.60;1.20;;;8.60;98.20;;;;;;5060861;28;20592;-81
2023/12/14 01:54:25;;;;;;;1.60;1.20;;;8.60;98.20;;;;;;5066049;28;20530;-82
2023/12/14 01:56:53;;;;;;;1.70;1.40;;;8.60;98.20;;;;;;5060389;28;21000;-81
2023/12/14 01:59:41;;;;;;;1.63;1.20;;;8.60;98.20;;;;;;5076514;28;20869;-81
2023/12/14 02:02:10;;;;;;;1.60;1.20;;;8.60;98.20;;;;;;5059986;28;20557;-81
2023/12/14 02:04:39;;;;;;;1.60;1.20;;;8.60;98.20;;;;;;5076875;28;20512;-81
2023/12/14 02:07:06;;;;;;;1.60;1.20;;;8.60;98.20;;;;;;5063172;28;21222;-80
2023/12/14 02:09:33;;;;;;;1.60;1.20;;;8.60;98.20;;;;;;5078923;28;20551;-80
2023/12/14 02:11:59;;;;;;;1.60;1.20;;;8.50;98.20;;;;;;5058872;28;20493;-81
2023/12/14 02:14:29;;;;;;;1.60;1.20;;;8.50;98.20;;;;;;5070017;28;20469;-80
2023/12/14 02:16:58;;;;;;;1.60;1.20;;;8.40;98.20;;;;;;5062159;28;20931;-81
2023/12/14 02:19:25;;;;;;;1.60;1.10;;;8.40;98.20;;;;;;5067304;28;20463;-80
2023/12/14 02:21:54;;;;;;;1.60;1.17;;;8.30;98.20;;;;;;5058882;28;20584;-80
2023/12/14 02:24:25;;;;;;;1.70;1.30;;;8.30;98.20;;;;;;5072162;28;20531;-80
2023/12/14 02:26:52;;;;;;;1.60;1.20;;;8.30;98.20;;;;;;5063090;28;20571;-81
2023/12/14 02:29:19;;;;;;;1.60;1.10;;;8.30;98.20;;;;;;5073747;28;20468;-80
2023/12/14 02:31:48;;;;;;;2.43;2.23;;;8.30;98.20;;;;;;5064602;28;20485;-80
2023/12/14 02:34:20;;;;;;;1.97;1.77;;;8.20;98.20;;;;;;5067718;28;20507;-83
2023/12/14 02:36:47;;;;;;;1.60;1.13;;;8.20;98.20;;;;;;5060354;28;20472;-86
2023/12/14 02:39:14;;;;;;;1.60;1.10;;;8.20;98.20;;;;;;5082405;28;20828;-83
2023/12/14 02:41:43;;;;;;;7.53;2.03;;;8.20;98.20;;;;;;5066838;28;20509;-82
2023/12/14 02:44:11;;;;;;;1.80;1.60;;;8.20;98.20;;;;;;5088549;28;20545;-83
2023/12/14 02:46:42;;;;;;;1.70;1.40;;;8.20;98.20;;;;;;5071337;28;21100;-85
2023/12/14 02:49:09;;;;;;;1.60;1.20;;;8.10;98.20;;;;;;5072540;28;20481;-84
2023/12/14 02:51:38;;;;;;;1.67;1.30;;;8.10;98.20;;;;;;5070338;28;20487;-84
2023/12/14 02:54:05;;;;;;;1.67;1.30;;;8.10;98.20;;;;;;5073093;28;20950;-83
2023/12/14 02:56:32;;;;;;;1.70;1.40;;;8.00;98.20;;;;;;5068890;28;20483;-85
2023/12/14 02:59:02;;;;;;;2.43;2.20;;;8.00;98.20;;;;;;5083787;28;20457;-82
2023/12/14 03:01:34;;;;;;;1.70;1.27;;;8.00;98.20;;;;;;5069179;28;20548;-81
2023/12/14 03:04:01;;;;;;;1.60;1.20;;;8.00;98.20;;;;;;5073937;28;20468;-84
2023/12/14 03:06:28;;;;;;;1.67;1.20;;;8.00;98.20;;;;;;5070237;28;20483;-83
2023/12/14 03:08:55;;;;;;;1.60;1.20;;;7.90;98.20;;;;;;5068544;28;20499;-83
2023/12/14 03:11:22;;;;;;;1.60;1.10;;;7.90;98.20;;;;;;5069812;28;20560;-83
2023/12/14 03:13:49;;;;;;;1.70;1.30;;;7.90;98.20;;;;;;5076794;28;20459;-85
2023/12/14 03:16:19;;;;;;;1.60;1.30;;;7.80;98.20;;;;;;5073069;28;20587;-84
2023/12/14 03:18:46;;;;;;;1.60;1.20;;;7.80;98.20;;;;;;5072918;28;20545;-83
2023/12/14 03:21:15;;;;;;;1.60;1.20;;;7.80;98.20;;;;;;5076085;28;20992;-83
2023/12/14 03:23:42;;;;;;;1.60;1.20;;;7.80;98.20;;;;;;5068254;28;20467;-84
2023/12/14 03:26:10;;;;;;;1.60;1.20;;;7.70;98.20;;;;;;5079386;28;20564;-82
2023/12/14 03:28:37;;;;;;;2.10;1.80;;;7.80;98.20;;;;;;5072060;28;20532;-84
2023/12/14 03:31:04;;;;;;;1.70;1.23;;;7.70;98.20;;;;;;5072681;28;20476;-84
2023/12/14 03:33:33;;;;;;;1.60;1.10;;;7.70;98.20;;;;;;5075459;28;20448;-82
2023/12/14 03:36:03;;;;;;;1.60;1.20;;;7.70;98.20;;;;;;5069004;28;20535;-82
2023/12/14 03:38:30;;;;;;;1.70;1.30;;;7.70;98.20;;;;;;5071602;28;20495;-81
2023/12/14 03:40:57;;;;;;;1.60;1.20;;;7.70;98.20;;;;;;5071698;28;20592;-82
2023/12/14 03:43:24;;;;;;;1.70;1.30;;;7.70;98.20;;;;;;5070490;28;20464;-81
2023/12/14 03:45:51;;;;;;;1.60;1.20;;;7.70;98.20;;;;;;5077985;28;20492;-83
2023/12/14 03:48:21;;;;;;;1.70;1.30;;;7.70;98.20;;;;;;5066381;28;20462;-84
2023/12/14 03:50:53;;;;;;;1.60;1.20;;;7.60;98.20;;;;;;5080450;28;20468;-82
2023/12/14 03:53:24;;;;;;;1.70;1.30;;;7.60;98.20;;;;;;5070411;28;20534;-82
2023/12/14 03:55:53;;;;;;;1.60;1.17;;;7.60;98.20;;;;;;5076787;28;20460;-83
2023/12/14 03:58:20;;;;;;;1.60;1.20;;;7.60;98.20;;;;;;5064653;28;20461;-84
2023/12/14 04:00:47;;;;;;;1.70;1.30;;;7.60;98.20;;;;;;5086356;28;20489;-84
2023/12/14 04:03:14;;;;;;;1.60;1.20;;;7.60;98.20;;;;;;5074098;28;20468;-84
2023/12/14 04:05:59;;;;;;;1.73;1.63;;;7.60;98.20;;;;;;5083896;28;20473;-82
2023/12/14 04:08:26;;;;;;;1.70;1.40;;;7.50;98.20;;;;;;5074595;28;20473;-84
2023/12/14 04:10:53;;;;;;;1.60;1.20;;;7.60;98.20;;;;;;5079828;28;20473;-83
2023/12/14 04:13:24;;;;;;;1.60;1.20;;;7.50;98.20;;;;;;5103139;28;20552;-85
2023/12/14 04:15:51;;;;;;;1.70;1.30;;;7.50;98.20;;;;;;5082034;28;20525;-82
2023/12/14 04:18:18;;;;;;;1.60;1.30;;;7.50;98.20;;;;;;5095001;28;20552;-83
2023/12/14 04:20:45;;;;;;;1.63;1.20;;;7.40;98.20;;;;;;5090714;28;20840;-83
2023/12/14 04:23:29;;;;;;;1.60;1.20;;;7.40;98.20;;;;;;5089800;28;20481;-81
2023/12/14 04:25:57;;;;;;;1.67;1.27;;;7.40;98.20;;;;;;5075847;28;20452;-82
2023/12/14 04:28:24;;;;;;;1.70;1.40;;;7.40;98.20;;;;;;5100093;28;20457;-84
2023/12/14 04:30:51;;;;;;;1.70;1.30;;;7.40;98.20;;;;;;5070408;28;20481;-84
2023/12/14 04:33:24;;;;;;;1.60;1.20;;;7.40;98.20;;;;;;5093700;28;20574;-82
2023/12/14 04:35:53;;;;;;;1.63;1.20;;;7.30;98.20;;;;;;5079888;28;20456;-84
2023/12/14 04:38:24;;;;;;;1.60;1.20;;;7.30;98.20;;;;;;5076244;28;20465;-85
2023/12/14 04:40:53;;;;;;;1.67;1.20;;;7.30;98.20;;;;;;5077437;28;20496;-82
2023/12/14 04:43:22;;;;;;;1.60;1.30;;;7.30;98.20;;;;;;5087963;28;20483;-87
2023/12/14 04:46:01;;;;;;;2.53;2.07;;;7.30;98.20;;;;;;5081228;28;20472;-82
2023/12/14 04:48:30;;;;;;;1.60;1.20;;;7.30;98.20;;;;;;5101154;28;20492;-82
2023/12/14 04:51:00;;;;;;;3.20;2.70;;;7.30;98.20;;;;;;5069727;28;20588;-85
2023/12/14 04:53:27;;;;;;;1.70;1.30;;;7.20;98.20;;;;;;5087889;28;20994;-82
2023/12/14 04:55:59;;;;;;;1.70;1.40;;;7.30;98.20;;;;;;5073610;28;20504;-82
2023/12/14 04:58:28;;;;;;;1.60;1.30;;;7.30;98.20;;;;;;5092432;28;20457;-82
2023/12/14 05:01:04;;;;;;;1.70;1.40;;;7.30;98.20;;;;;;5068797;28;20490;-83
2023/12/14 05:03:33;;;;;;;1.60;1.20;;;7.20;98.20;;;;;;5096426;28;20519;-84
2023/12/14 05:06:00;;;;;;;2.90;2.70;;;7.20;98.20;;;;;;5065254;28;20478;-84
2023/12/14 05:08:28;;;;;;;1.60;1.20;;;7.20;98.20;;;;;;5101726;28;20480;-82
2023/12/14 05:10:55;;;;;;;1.70;1.30;;;7.30;98.20;;;;;;5078645;28;20480;-82
2023/12/14 05:13:28;;;;;;;1.70;1.30;;;7.20;98.20;;;;;;5100180;28;20462;-86
2023/12/14 05:15:57;;;;;;;1.67;1.30;;;7.20;98.20;;;;;;5077786;28;20539;-85
2023/12/14 05:18:27;;;;;;;1.63;1.30;;;7.20;98.20;;;;;;5093780;28;20569;-82
2023/12/14 05:20:57;;;;;;;1.60;1.20;;;7.30;98.20;;;;;;5069601;28;20551;-83
2023/12/14 05:23:29;;;;;;;1.70;1.37;;;7.20;98.20;;;;;;5096604;28;21017;-81
2023/12/14 05:25:56;;;;;;;1.60;1.20;;;7.20;98.20;;;;;;5069812;28;20461;-82
2023/12/14 05:28:31;;;;;;;1.70;1.30;;;7.20;98.20;;;;;;5100747;28;20461;-84
2023/12/14 05:31:04;;;;;;;1.63;1.30;;;7.20;98.20;;;;;;5079781;28;20468;-83
2023/12/14 05:33:36;;;;;;;1.60;1.30;;;7.10;98.20;;;;;;5102229;28;20465;-85
2023/12/14 05:36:05;;;;;;;1.60;1.20;;;7.10;98.20;;;;;;5080567;28;20527;-83
2023/12/14 05:38:38;;;;;;;1.87;1.67;;;7.10;98.20;;;;;;5099029;28;20464;-86
2023/12/14 05:41:06;;;;;;;1.63;1.27;;;7.20;98.20;;;;;;5069171;28;20543;-83
2023/12/14 05:43:36;;;;;;;1.60;1.20;;;7.20;98.20;;;;;;5098391;28;20584;-84
2023/12/14 05:46:04;;;;;;;1.60;1.27;;;7.20;98.20;;;;;;5069281;28;20496;-83
2023/12/14 05:48:36;;;;;;;1.60;1.30;;;7.20;98.20;;;;;;5106745;28;20937;-84
2023/12/14 05:51:07;;;;;;;1.70;1.40;;;7.20;98.20;;;;;;5073316;28;20567;-84
2023/12/14 05:53:45;;;;;;;1.63;1.30;;;7.20;98.20;;;;;;5103053;28;20468;-85
2023/12/14 05:56:16;;;;;;;1.63;1.20;;;7.20;98.20;;;;;;5073629;28;20476;-85
2023/12/14 06:01:44;;;;;;;1.60;1.20;;;7.10;98.20;;;;;;5066466;28;20472;-83
2023/12/14 06:04:11;;;;;;;1.67;1.30;;;7.10;98.20;;;;;;5084211;28;20475;-83
2023/12/14 06:06:39;;;;;;;1.60;1.23;;;7.10;98.20;;;;;;5076346;28;20477;-84
2023/12/14 06:09:08;;;;;;;1.63;1.30;;;7.10;98.20;;;;;;5082758;28;20678;-82
2023/12/14 06:11:36;;;;;;;1.60;1.20;;;7.20;98.20;;;;;;5076138;28;20491;-82
2023/12/14 06:14:08;;;;;;;1.60;1.27;;;7.20;98.20;;;;;;5091386;28;20456;-82
2023/12/14 06:16:35;;;;;;;3.17;2.87;;;7.20;98.20;;;;;;5073257;28;20480;-83
2023/12/14 06:19:02;;;;;;;1.60;1.20;;;7.20;98.20;;;;;;5090950;28;20533;-84
2023/12/14 06:21:29;;;;;;;1.60;1.20;;;7.20;98.20;;;;;;5077003;28;20479;-82
2023/12/14 06:23:58;;;;;;;1.60;1.30;;;7.10;98.20;;;;;;5095361;28;20468;-84
2023/12/14 06:26:29;;;;;;;1.60;1.23;;;7.10;98.20;;;;;;5081805;28;20558;-82
2023/12/14 06:28:56;;;;;;;1.63;1.20;;;7.10;98.20;;;;;;5090465;28;20509;-83
2023/12/14 06:31:24;;;;;;;1.60;1.20;;;7.10;98.20;;;;;;5071156;28;20486;-82
2023/12/14 06:33:55;;;;;;;1.70;1.30;;;7.10;98.20;;;;;;5084837;28;20494;-83
2023/12/14 06:36:31;;;;;;;1.67;1.20;;;7.10;98.20;;;;;;5077571;28;20470;-82
2023/12/14 06:38:58;;;;;;;1.60;1.20;;;7.10;98.20;;;;;;5088273;28;20554;-82
2023/12/14 06:41:28;;;;;;;1.60;1.10;;;7.10;98.20;;;;;;5069079;28;20574;-81
2023/12/14 06:43:56;;;;;;;1.67;1.30;;;7.00;98.20;;;;;;5082149;28;20470;-83
2023/12/14 06:46:31;;;;;;;1.60;1.20;;;7.10;98.20;;;;;;5061430;28;20476;-82
2023/12/14 06:48:58;;;;;;;1.63;1.20;;;7.00;98.20;;;;;;5091393;28;20468;-81
2023/12/14 06:51:25;;;;;;;1.60;1.23;;;7.00;98.20;;;;;;5075214;28;20470;-83
2023/12/14 06:53:58;;;;;;;2.87;2.17;;;7.00;98.20;;;;;;5090519;28;20468;-83
2023/12/14 06:56:31;;;;;;;1.70;1.30;;;7.00;98.20;;;;;;5078260;28;20548;-84
2023/12/14 06:58:58;;;;;;;1.67;1.30;;;6.90;98.20;;;;;;5100528;28;20464;-82
2023/12/14 07:01:36;;;;;;;1.60;1.20;;;6.90;98.20;;;;;;5076081;28;20468;-82
2023/12/14 07:04:04;;;;;;;1.63;1.30;;;6.90;98.20;;;;;;5092116;28;20460;-82
2023/12/14 07:06:32;;;;;;;1.70;1.40;;;6.90;98.20;;;;;;5072032;28;20477;-83
2023/12/14 07:09:05;;;;;;;1.60;1.20;;;6.90;98.20;;;;;;5086107;28;20497;-83
2023/12/14 07:11:32;;;;;;;1.60;1.30;;;6.90;98.20;;;;;;5064486;28;20554;-83
2023/12/14 07:14:03;;;;;;;1.60;1.20;;;6.90;98.20;;;;;;5076489;28;20457;-85
2023/12/14 07:16:32;;;;;;;1.60;1.20;;;6.90;98.20;;;;;;5071318;28;20951;-83
2023/12/14 07:18:59;;;;;;;1.60;1.20;;;6.90;98.20;;;;;;5095645;28;20518;-83
2023/12/14 07:21:45;;;;;;;1.60;1.20;;;6.90;98.20;;;;;;5070672;28;20644;-83
2023/12/14 07:24:30;;;;;;;1.60;1.30;;;6.90;98.20;;;;;;5089456;28;20511;-85
2023/12/14 07:27:03;;;;;;;1.60;1.30;;;6.90;98.20;;;;;;5063904;28;20568;-84
2023/12/14 07:29:30;;;;;;;4.53;2.20;;;6.90;98.20;;;;;;5083566;28;20478;-85
2023/12/14 07:31:58;;;;;;;1.60;1.20;;;6.90;98.20;;;;;;5065888;28;20587;-83
2023/12/14 07:34:28;;;;;;;1.60;1.30;;;6.80;98.20;;;;;;5084970;28;20519;-85
2023/12/14 07:37:05;;;;;;;1.60;1.20;;;6.80;98.20;;;;;;5077987;28;20520;-82
2023/12/14 07:39:33;;;;;;;1.60;1.30;;;6.80;98.20;;;;;;5077831;28;20528;-84
2023/12/14 07:42:02;;;;;;;1.60;1.20;;;6.80;98.20;;;;;;5073192;28;20507;-84
2023/12/14 07:44:29;;;;;;;1.70;1.30;;;6.70;98.20;;;;;;5081679;28;20463;-83
2023/12/14 07:47:07;;;;;;;1.67;1.30;;;6.70;98.20;;;;;;5068866;28;20496;-84
2023/12/14 07:49:36;;;;;;;1.60;1.30;;;6.80;98.20;;;;;;5083045;28;21011;-82
2023/12/14 07:52:09;;;;;;;1.90;1.70;;;6.80;98.20;;;;;;5081820;28;20484;-84
2023/12/14 07:54:38;;;;;;;1.60;1.20;;;6.80;98.20;;;;;;5080191;28;20541;-84
2023/12/14 07:57:23;;;;;;;2.03;1.83;;;6.80;98.20;;;;;;5072344;28;20751;-83
2023/12/14 07:59:57;;;;;;;1.63;1.20;;;6.80;98.20;;;;;;5082359;28;20491;-86
2023/12/14 08:02:27;;;;;;;1.60;1.30;;;6.80;98.20;;;;;;5073822;28;20817;-83
2023/12/14 08:04:54;;;;;;;1.70;1.37;;;6.80;98.20;;;;;;5079966;28;20483;-85
2023/12/14 08:07:28;;;;;;;2.33;2.13;;;6.80;98.20;;;;;;5084497;28;20592;-83
2023/12/14 08:10:03;;;;;;;1.63;1.27;;;6.70;98.20;;;;;;5076804;28;20462;-83
2023/12/14 08:12:30;;;;;;;1.60;1.30;;;6.80;98.20;;;;;;5078857;28;20526;-84
2023/12/14 08:14:56;;;;;;;1.67;1.30;;;6.70;98.20;;;;;;5078776;28;20533;-83
2023/12/14 08:17:25;;;;;;;1.63;1.27;;;6.70;98.20;;;;;;5080827;28;21352;-83
2023/12/14 08:19:52;;;;;;;4.03;2.40;;;6.70;98.20;;;;;;5086511;28;20464;-83
2023/12/14 08:22:22;;;;;;;1.70;1.40;;;6.70;98.20;;;;;;5085809;28;20477;-82
2023/12/14 08:24:49;;;;;;;1.67;1.30;;;6.70;98.20;;;;;;5087975;28;20460;-83
2023/12/14 08:27:16;;;;;;;1.70;1.20;;;6.70;98.20;;;;;;5081955;28;20519;-83
2023/12/14 08:29:45;;;;;;;1.63;1.30;;;6.70;98.20;;;;;;5080094;28;20492;-83
2023/12/14 08:32:12;;;;;;;1.60;1.30;;;6.60;98.20;;;;;;5072786;28;20476;-83
2023/12/14 08:34:41;;;;;;;1.60;1.30;;;6.70;98.20;;;;;;5082148;28;20458;-82
2023/12/14 08:37:09;;;;;;;1.60;1.27;;;6.60;98.20;;;;;;5080814;28;20583;-83
2023/12/14 08:39:36;;;;;;;1.60;1.20;;;6.60;98.20;;;;;;5076613;28;20744;-82
2023/12/14 08:42:03;;;;;;;1.60;1.30;;;6.60;98.20;;;;;;5071403;28;21066;-82
2023/12/14 08:44:30;;;;;;;1.67;1.30;;;6.60;98.20;;;;;;5086568;28;20528;-82
2023/12/14 08:46:57;;;;;;;1.67;1.30;;;6.60;98.20;;;;;;5077588;28;20504;-82
2023/12/14 08:49:24;;;;;;;1.60;1.30;;;6.60;98.20;;;;;;5078856;28;20469;-83
2023/12/14 08:51:52;;;;;;;1.60;1.20;;;6.60;98.20;;;;;;5070509;28;20514;-83
2023/12/14 08:54:19;;;;;;;1.60;1.23;;;6.60;98.20;;;;;;5081324;28;20464;-83
2023/12/14 08:56:46;;;;;;;1.60;1.27;;;6.60;98.20;;;;;;5076587;28;20480;-82
2023/12/14 08:59:12;;;;;;;1.70;1.40;;;6.60;98.20;;;;;;5085482;28;20719;-84
2023/12/14 09:01:39;;;;;;;1.70;1.40;;;6.60;98.20;;;;;;5076792;28;20488;-85
2023/12/14 09:04:06;;;;;;;1.60;1.23;;;6.50;98.20;;;;;;5088710;28;20464;-83
2023/12/14 09:06:33;;;;;;;1.60;1.30;;;6.50;98.20;;;;;;5075785;28;21132;-81
2023/12/14 09:09:02;;;;;;;1.67;1.30;;;6.50;98.20;;;;;;5088726;28;20552;-84
2023/12/14 09:11:29;;;;;;;1.60;1.20;;;6.40;98.20;;;;;;5077694;28;20476;-84
2023/12/14 09:13:56;;;;;;;1.63;1.30;;;6.40;98.20;;;;;;5096391;28;20466;-81
2023/12/14 09:16:22;;;;;;;1.63;1.30;;;6.40;98.20;;;;;;5079863;28;20502;-81
2023/12/14 09:18:49;;;;;;;1.70;1.27;;;6.40;98.20;;;;;;5081551;28;20561;-84
2023/12/14 09:21:16;;;;;;;1.60;1.20;;;6.40;98.20;;;;;;5062744;28;20555;-82
2023/12/14 09:23:44;;;;;;;1.60;1.30;;;6.40;98.20;;;;;;5086058;28;20480;-82
2023/12/14 09:26:15;;;;;;;1.70;1.30;;;6.40;98.20;;;;;;5066264;28;20622;-83
2023/12/14 09:28:42;;;;;;;1.70;1.40;;;6.40;98.20;;;;;;5086096;28;21022;-82
2023/12/14 09:31:09;;;;;;;1.60;1.30;;;6.40;98.20;;;;;;5061838;28;20659;-82
2023/12/14 09:33:40;;;;;;;1.67;1.40;;;6.40;98.20;;;;;;5082070;28;20457;-85
2023/12/14 09:42:42;;;;;;;1.70;1.40;;;6.40;98.20;;;;;;5061533;28;20487;-83
2023/12/14 09:49:33;;;;;;;1.70;1.40;;;6.50;98.20;;;;;;5003772;28;20558;-83
2023/12/14 09:55:22;;;;;;;1.70;1.40;;;6.40;98.20;;;;;;5037733;28;20480;-86
2023/12/14 10:26:32;;;;;;;1.70;1.30;;;6.60;98.20;;;;;;4915045;28;20472;-83
2023/12/14 10:32:57;;;;;;;2.00;1.80;;;6.50;98.20;;;;;;4895613;28;20840;-82
2023/12/14 10:38:41;;;;;;;1.67;1.30;;;6.50;98.20;;;;;;4958021;28;20578;-81
2023/12/14 10:41:37;;;;;;;1.67;1.20;;;6.60;98.20;;;;;;4989581;28;20473;-84
2023/12/14 10:44:20;;;;;;;1.70;1.30;;;6.60;98.20;;;;;;5055386;28;20495;-82
2023/12/14 10:47:21;;;;;;;1.70;1.20;;;6.60;98.20;;;;;;5071935;28;20486;-84
2023/12/14 10:50:03;;;;;;;1.60;1.27;;;6.60;98.20;;;;;;5086384;28;20550;-85
2023/12/14 10:52:52;;;;;;;;;;;;;;;;;;;;;
2023/12/14 10:55:30;;;;;;;1.63;1.30;;;6.60;98.20;;;;;;5096628;28;20448;-84
2023/12/14 10:58:08;;;;;;;1.60;1.30;;;6.60;98.20;;;;;;5082094;28;21058;-82
2023/12/14 11:00:45;;;;;;;1.63;1.30;;;6.60;98.20;;;;;;5089364;28;20828;-83
2023/12/14 11:03:17;;;;;;;1.60;1.20;;;6.60;98.20;;;;;;5072567;28;20512;-84
2023/12/14 11:05:48;;;;;;;1.60;1.20;;;6.60;98.20;;;;;;5096990;28;20555;-83
2023/12/14 11:08:25;;;;;;;2.80;2.60;;;6.60;98.20;;;;;;5088147;28;20557;-83
2023/12/14 11:11:10;;;;;;;1.63;1.30;;;6.60;98.20;;;;;;5134815;22;21009;-82
2023/12/14 11:14:04;;;;;;;1.60;1.30;;;6.60;98.20;;;;;;5082096;28;20515;-83
2023/12/14 11:16:35;;;;;;;1.63;1.30;;;6.60;98.20;;;;;;5073359;28;20483;-84
2023/12/14 11:19:35;;;;;;;1.60;1.30;;;6.60;98.20;;;;;;5069325;28;21293;-85
2023/12/14 11:22:39;;;;;;;1.70;1.30;;;6.60;98.20;;;;;;5037659;28;20524;-86
2023/12/14 11:35:08;;;;;;;1.67;1.30;;;6.70;98.20;;;;;;5056003;28;20531;-85
2023/12/14 11:38:01;;;;;;;;;;;;;;;;;;;;;
2023/12/14 11:40:55;;;;;;;1.70;1.40;;;6.70;98.20;;;;;;5146916;22;20597;-87
2023/12/14 11:53:04;;;;;;;1.60;1.23;;;6.70;98.20;;;;;;5114000;22;20497;-87
2023/12/14 12:02:48;;;;;;;1.70;1.40;;;6.70;98.20;;;;;;5025644;28;20487;-85
2023/12/14 12:05:38;;;;;;;1.60;1.20;;;6.80;98.20;;;;;;5033584;28;20455;-87
2023/12/14 12:14:34;;;;;;;1.70;1.40;;;6.90;98.20;;;;;;5034147;28;20470;-83
2023/12/14 12:17:28;;;;;;;1.70;1.30;;;6.80;98.20;;;;;;5028674;28;20561;-87
2023/12/14 12:21:05;;;;;;;;;;;;;;;;;;;;;
2023/12/14 12:30:14;;;;;;;1.67;1.27;;;6.80;98.20;;;;;;5041199;28;20536;-82
2023/12/14 12:36:28;;;;;;;1.60;1.30;;;6.80;98.20;;;;;;5028193;28;20595;-83
2023/12/14 12:39:50;;;;;;;1.70;1.40;;;6.90;98.20;;;;;;5047509;28;20988;-83
2023/12/14 12:45:50;;;;;;;1.70;1.30;;;6.80;98.20;;;;;;5042568;28;20477;-82
2023/12/14 12:51:38;;;;;;;1.60;1.20;;;6.80;98.20;;;;;;4977003;28;20484;-84
2023/12/14 12:54:44;;;;;;;1.60;1.30;;;6.80;98.20;;;;;;5035305;28;20482;-83
2023/12/14 13:03:45;;;;;;;1.67;1.33;;;6.70;98.20;;;;;;4951443;28;20490;-87
2023/12/14 13:06:27;;;;;;;1.60;1.20;;;6.70;98.20;;;;;;5000192;28;21364;-83
2023/12/14 13:09:08;;;;;;;1.60;1.20;;;6.60;98.20;;;;;;5045493;28;20462;-82
2023/12/14 13:11:40;;;;;;;1.67;1.30;;;6.60;98.20;;;;;;5034806;28;20569;-84
2023/12/14 13:14:31;;;;;;;1.60;1.30;;;6.60;98.20;;;;;;5048844;28;20465;-82
2023/12/14 13:17:53;;;;;;;1.63;1.30;;;6.60;98.20;;;;;;5035477;28;20473;-83
2023/12/14 13:20:27;;;;;;;1.67;1.30;;;6.70;98.20;;;;;;5034045;28;20564;-86
2023/12/14 13:23:04;;;;;;;1.70;1.30;;;6.60;98.20;;;;;;5015912;28;20841;-85
2023/12/14 13:25:31;;;;;;;1.60;1.20;;;6.70;98.20;;;;;;5043980;28;20549;-83
2023/12/14 13:31:08;;;;;;;1.60;1.20;;;6.60;98.20;;;;;;4976702;28;20477;-84
2023/12/14 13:33:51;;;;;;;1.63;1.30;;;6.70;98.20;;;;;;5059567;28;20795;-86
2023/12/14 13:36:42;;;;;;;1.60;1.30;;;6.60;98.20;;;;;;5039798;28;20960;-84
2023/12/14 13:39:24;;;;;;;1.60;1.20;;;6.50;98.20;;;;;;5055789;28;20465;-83
2023/12/14 13:42:15;;;;;;;1.63;1.20;;;6.50;98.20;;;;;;5038005;28;20944;-84
2023/12/14 13:48:02;;;;;;;1.60;1.20;;;6.50;98.20;;;;;;5055892;28;20484;-86
2023/12/14 13:51:10;;;;;;;1.70;1.40;;;6.50;98.20;;;;;;5064996;28;20489;-86
2023/12/14 13:53:45;;;;;;;1.60;1.30;;;6.50;98.20;;;;;;5016137;28;20474;-84
2023/12/14 13:56:17;;;;;;;1.60;1.20;;;6.50;98.20;;;;;;5044057;28;20472;-85
2023/12/14 13:58:47;;;;;;;1.70;1.30;;;6.40;98.20;;;;;;5058805;28;20455;-84
2023/12/14 14:01:14;;;;;;;1.67;1.30;;;6.40;98.20;;;;;;5042602;28;20508;-84
2023/12/14 14:03:46;;;;;;;1.60;1.27;;;6.40;98.20;;;;;;5050728;28;20521;-83
2023/12/14 14:06:16;;;;;;;1.67;1.30;;;6.30;98.20;;;;;;5039142;28;20478;-85
2023/12/14 14:09:10;;;;;;;1.63;1.30;;;6.30;98.20;;;;;;5041152;28;20462;-85
2023/12/14 14:11:50;;;;;;;1.70;1.30;;;6.20;98.20;;;;;;5099345;22;20499;-87
2023/12/14 14:14:54;;;;;;;1.60;1.20;;;6.20;98.20;;;;;;5084842;28;20469;-84
2023/12/14 14:17:28;;;;;;;1.60;1.30;;;6.20;98.20;;;;;;5063552;28;20473;-85
2023/12/14 14:19:58;;;;;;;1.60;1.20;;;6.10;98.20;;;;;;5084816;28;20480;-83
2023/12/14 14:22:25;;;;;;;1.63;1.20;;;6.10;98.20;;;;;;5057163;28;20598;-82
2023/12/14 14:24:52;;;;;;;1.67;1.20;;;6.10;98.20;;;;;;5075085;28;20540;-83
2023/12/14 14:27:26;;;;;;;1.70;1.30;;;6.10;98.20;;;;;;5057348;28;20488;-84
2023/12/14 14:30:00;;;;;;;1.63;1.30;;;6.00;98.20;;;;;;5071482;28;20465;-84
2023/12/14 14:32:32;;;;;;;1.70;1.40;;;6.00;98.20;;;;;;5035898;28;20474;-87
2023/12/14 14:35:18;;;;;;;1.63;1.30;;;6.00;98.20;;;;;;5061985;28;20572;-82
2023/12/14 14:43:52;;;;;;;1.63;1.30;;;6.00;98.20;;;;;;5047337;28;20480;-85
2023/12/14 14:46:28;;;;;;;1.60;1.30;;;6.00;98.20;;;;;;5043054;28;20477;-86
2023/12/14 14:58:57;;;;;;;1.70;1.40;;;6.00;98.20;;;;;;4979551;28;20480;-85
2023/12/14 15:01:55;;;;;;;1.60;1.23;;;5.90;98.20;;;;;;5037729;28;20476;-85
2023/12/14 15:07:44;;;;;;;1.63;1.30;;;5.90;98.20;;;;;;5058997;28;20593;-83
2023/12/14 15:10:31;;;;;;;1.60;1.30;;;5.90;98.20;;;;;;5061482;28;20788;-83
2023/12/14 15:13:14;;;;;;;1.67;1.30;;;5.90;98.20;;;;;;5070479;28;20472;-84
2023/12/14 15:16:17;;;;;;;1.60;1.30;;;5.90;98.20;;;;;;5064233;28;20761;-83
2023/12/14 15:18:51;;;;;;;1.60;1.30;;;5.80;98.20;;;;;;4933321;28;20517;-82
2023/12/14 15:27:39;;;;;;;1.63;1.30;;;5.90;98.20;;;;;;5046642;28;20856;-81
2023/12/14 15:30:14;;;;;;;1.60;1.30;;;5.80;98.20;;;;;;5076775;28;20462;-81
2023/12/14 15:32:56;;;;;;;1.60;1.30;;;5.80;98.20;;;;;;5069508;28;20642;-83
2023/12/14 15:35:33;;;;;;;1.70;1.47;;;5.80;98.20;;;;;;5073378;28;20453;-83
2023/12/14 15:38:00;;;;;;;1.67;1.30;;;5.90;98.20;;;;;;5074008;28;20479;-83
2023/12/14 15:40:48;;;;;;;1.60;1.30;;;5.80;98.20;;;;;;5069796;28;20559;-85
2023/12/14 15:43:47;;;;;;;1.70;1.40;;;5.80;98.20;;;;;;5055613;28;20470;-83
2023/12/14 15:49:45;;;;;;;4.70;4.30;;;5.80;98.20;;;;;;5043265;28;20456;-83
2023/12/14 15:55:07;;;;;;;1.60;1.30;;;5.80;98.20;;;;;;5070701;28;20453;-82